sensor_id;sensor_type;location;lat;lon;timestamp;temperature;humidity
22212;DHT22;11275;52.488;13.462;2022-12-18T00:01:36;-1.90;99.90
22212;DHT22;11275;52.488;13.462;2022-12-18T00:04:06;-2.00;99.90
22212;DHT22;11275;52.488;13.462;2022-12-18T00:06:36;-2.00;99.90
22212;DHT22;11275;52.488;13.462;2022-12-18T00:09:03;-2.00;99.90
22212;DHT22;11275;52.488;13.462;2022-12-18T00:11:30;-2.00;99.90
22212;DHT22;11275;52.488;13.462;2022-12-18T00:13:57;-1.90;99.90
22212;DHT22;11275;52.488;13.462;2022-12-18T00:16:25;-1.90;99.90
22212;DHT22;11275;52.488;13.462;2022-12-18T00:18:56;-2.00;99.90
22212;DHT22;11275;52.488;13.462;2022-12-18T00:21:22;-1.90;99.90
22212;DHT22;11275;52.488;13.462;2022-12-18T00:23:49;-1.90;99.90
22212;DHT22;11275;52.488;13.462;2022-12-18T00:26:38;-2.00;99.90
22212;DHT22;11275;52.488;13.462;2022-12-18T00:29:12;-2.10;99.90
22212;DHT22;11275;52.488;13.462;2022-12-18T00:31:42;-2.10;99.90
22212;DHT22;11275;52.488;13.462;2022-12-18T00:34:10;-2.00;99.90
22212;DHT22;11275;52.488;13.462;2022-12-18T00:36:36;-2.00;99.90
22212;DHT22;11275;52.488;13.462;2022-12-18T00:39:04;-2.10;99.90
22212;DHT22;11275;52.488;13.462;2022-12-18T00:41:30;-2.00;99.90
22212;DHT22;11275;52.488;13.462;2022-12-18T00:44:16;-2.00;99.90
22212;DHT22;11275;52.488;13.462;2022-12-18T00:46:43;-2.20;99.90
22212;DHT22;11275;52.488;13.462;2022-12-18T00:49:09;-2.30;99.90
22212;DHT22;11275;52.488;13.462;2022-12-18T00:51:35;-2.30;99.90
22212;DHT22;11275;52.488;13.462;2022-12-18T00:54:04;-2.30;99.90
22212;DHT22;11275;52.488;13.462;2022-12-18T00:56:30;-2.20;99.90
22212;DHT22;11275;52.488;13.462;2022-12-18T00:58:56;-2.30;99.90
22212;DHT22;11275;52.488;13.462;2022-12-18T01:01:21;-2.30;99.90
22212;DHT22;11275;52.488;13.462;2022-12-18T01:03:47;-2.30;99.90
22212;DHT22;11275;52.488;13.462;2022-12-18T01:06:14;-2.30;99.90
22212;DHT22;11275;52.488;13.462;2022-12-18T01:08:40;-2.40;99.90
22212;DHT22;11275;52.488;13.462;2022-12-18T01:11:19;-2.30;99.90
22212;DHT22;11275;52.488;13.462;2022-12-18T01:13:46;-2.40;99.90
22212;DHT22;11275;52.488;13.462;2022-12-18T01:16:14;-2.40;99.90
22212;DHT22;11275;52.488;13.462;2022-12-18T01:18:40;-2.50;99.90
22212;DHT22;11275;52.488;13.462;2022-12-18T01:21:10;-2.60;99.90
22212;DHT22;11275;52.488;13.462;2022-12-18T01:23:37;-2.60;99.90
22212;DHT22;11275;52.488;13.462;2022-12-18T01:26:08;-2.50;99.90
22212;DHT22;11275;52.488;13.462;2022-12-18T01:28:34;-2.50;99.90
22212;DHT22;11275;52.488;13.462;2022-12-18T01:31:21;-2.50;99.90
22212;DHT22;11275;52.488;13.462;2022-12-18T01:33:47;-2.50;99.90
22212;DHT22;11275;52.488;13.462;2022-12-18T01:36:18;-2.50;99.90
22212;DHT22;11275;52.488;13.462;2022-12-18T01:38:45;-2.50;99.90
22212;DHT22;11275;52.488;13.462;2022-12-18T01:41:10;-2.60;99.90
22212;DHT22;11275;52.488;13.462;2022-12-18T01:46:18;-2.50;99.90
22212;DHT22;11275;52.488;13.462;2022-12-18T01:48:47;-2.60;99.90
22212;DHT22;11275;52.488;13.462;2022-12-18T01:51:13;-2.60;99.90
22212;DHT22;11275;52.488;13.462;2022-12-18T01:53:41;-2.60;99.90
22212;DHT22;11275;52.488;13.462;2022-12-18T01:56:07;-2.70;99.90
22212;DHT22;11275;52.488;13.462;2022-12-18T01:59:00;-2.70;99.90
22212;DHT22;11275;52.488;13.462;2022-12-18T02:01:29;-2.80;99.90
22212;DHT22;11275;52.488;13.462;2022-12-18T02:03:56;-2.80;99.90
22212;DHT22;11275;52.488;13.462;2022-12-18T02:06:40;-2.70;99.90
22212;DHT22;11275;52.488;13.462;2022-12-18T02:09:17;-2.70;99.90
22212;DHT22;11275;52.488;13.462;2022-12-18T02:12:21;-2.60;99.90
22212;DHT22;11275;52.488;13.462;2022-12-18T02:15:15;-2.70;99.90
22212;DHT22;11275;52.488;13.462;2022-12-18T02:17:47;-2.80;99.90
22212;DHT22;11275;52.488;13.462;2022-12-18T02:20:27;-2.70;99.90
22212;DHT22;11275;52.488;13.462;2022-12-18T02:28:31;-2.70;99.90
22212;DHT22;11275;52.488;13.462;2022-12-18T02:31:01;-2.80;99.90
22212;DHT22;11275;52.488;13.462;2022-12-18T02:33:30;-2.70;99.90
22212;DHT22;11275;52.488;13.462;2022-12-18T02:35:58;-2.70;99.90
22212;DHT22;11275;52.488;13.462;2022-12-18T02:38:25;-2.70;99.90
22212;DHT22;11275;52.488;13.462;2022-12-18T02:40:51;-2.70;99.90
22212;DHT22;11275;52.488;13.462;2022-12-18T02:43:21;-2.70;99.90
22212;DHT22;11275;52.488;13.462;2022-12-18T02:45:55;-2.70;99.90
22212;DHT22;11275;52.488;13.462;2022-12-18T02:48:33;-2.80;99.90
22212;DHT22;11275;52.488;13.462;2022-12-18T02:51:08;-2.80;99.90
22212;DHT22;11275;52.488;13.462;2022-12-18T02:54:02;-2.80;99.90
22212;DHT22;11275;52.488;13.462;2022-12-18T02:56:29;-2.80;99.90
22212;DHT22;11275;52.488;13.462;2022-12-18T02:59:02;-2.80;99.90
22212;DHT22;11275;52.488;13.462;2022-12-18T03:01:54;-2.80;99.90
22212;DHT22;11275;52.488;13.462;2022-12-18T03:04:43;-2.80;99.90
22212;DHT22;11275;52.488;13.462;2022-12-18T03:07:33;-2.80;99.90
22212;DHT22;11275;52.488;13.462;2022-12-18T03:10:00;-2.80;99.90
22212;DHT22;11275;52.488;13.462;2022-12-18T03:12:53;-2.80;99.90
22212;DHT22;11275;52.488;13.462;2022-12-18T03:15:42;-2.70;99.90
22212;DHT22;11275;52.488;13.462;2022-12-18T03:18:32;-2.80;99.90
22212;DHT22;11275;52.488;13.462;2022-12-18T03:21:02;-2.90;99.90
22212;DHT22;11275;52.488;13.462;2022-12-18T03:23:34;-2.80;99.90
22212;DHT22;11275;52.488;13.462;2022-12-18T03:26:05;-2.80;99.90
22212;DHT22;11275;52.488;13.462;2022-12-18T03:28:36;-2.90;99.90
22212;DHT22;11275;52.488;13.462;2022-12-18T03:31:04;-2.90;99.90
22212;DHT22;11275;52.488;13.462;2022-12-18T03:34:16;-3.00;99.90
22212;DHT22;11275;52.488;13.462;2022-12-18T03:36:22;-3.00;99.90
22212;DHT22;11275;52.488;13.462;2022-12-18T03:38:49;-3.00;99.90
22212;DHT22;11275;52.488;13.462;2022-12-18T03:46:30;-2.90;99.90
22212;DHT22;11275;52.488;13.462;2022-12-18T03:49:23;-2.90;99.90
22212;DHT22;11275;52.488;13.462;2022-12-18T03:52:12;-2.90;99.90
22212;DHT22;11275;52.488;13.462;2022-12-18T03:54:39;-2.90;99.90
22212;DHT22;11275;52.488;13.462;2022-12-18T03:57:21;-3.00;99.90
22212;DHT22;11275;52.488;13.462;2022-12-18T03:59:50;-3.00;99.90
22212;DHT22;11275;52.488;13.462;2022-12-18T04:02:17;-3.00;99.90
22212;DHT22;11275;52.488;13.462;2022-12-18T04:04:45;-3.00;99.90
22212;DHT22;11275;52.488;13.462;2022-12-18T04:07:13;-3.00;99.90
22212;DHT22;11275;52.488;13.462;2022-12-18T04:09:39;-2.90;99.90
22212;DHT22;11275;52.488;13.462;2022-12-18T04:12:06;-2.90;99.90
22212;DHT22;11275;52.488;13.462;2022-12-18T04:14:33;-2.90;99.90
22212;DHT22;11275;52.488;13.462;2022-12-18T04:17:01;-2.90;99.90
22212;DHT22;11275;52.488;13.462;2022-12-18T04:19:28;-2.90;99.90
22212;DHT22;11275;52.488;13.462;2022-12-18T04:21:54;-2.90;99.90
22212;DHT22;11275;52.488;13.462;2022-12-18T04:24:19;-3.00;99.90
22212;DHT22;11275;52.488;13.462;2022-12-18T04:26:45;-3.10;99.90
22212;DHT22;11275;52.488;13.462;2022-12-18T04:29:10;-3.10;99.90
22212;DHT22;11275;52.488;13.462;2022-12-18T04:31:36;-3.10;99.90
22212;DHT22;11275;52.488;13.462;2022-12-18T04:34:02;-3.10;99.90
22212;DHT22;11275;52.488;13.462;2022-12-18T04:36:27;-3.20;99.90
22212;DHT22;11275;52.488;13.462;2022-12-18T04:38:53;-2.90;99.90
22212;DHT22;11275;52.488;13.462;2022-12-18T04:41:19;-3.10;99.90
22212;DHT22;11275;52.488;13.462;2022-12-18T04:43:44;-3.10;99.90
22212;DHT22;11275;52.488;13.462;2022-12-18T04:46:10;-3.20;99.90
22212;DHT22;11275;52.488;13.462;2022-12-18T04:48:36;-3.30;99.90
22212;DHT22;11275;52.488;13.462;2022-12-18T04:51:02;-3.20;99.90
22212;DHT22;11275;52.488;13.462;2022-12-18T04:53:28;-3.20;99.90
22212;DHT22;11275;52.488;13.462;2022-12-18T04:56:08;-3.10;99.90
22212;DHT22;11275;52.488;13.462;2022-12-18T04:58:35;-3.00;99.90
22212;DHT22;11275;52.488;13.462;2022-12-18T05:01:01;-3.00;99.90
22212;DHT22;11275;52.488;13.462;2022-12-18T05:03:27;-3.10;99.90
22212;DHT22;11275;52.488;13.462;2022-12-18T05:05:53;-3.10;99.90
22212;DHT22;11275;52.488;13.462;2022-12-18T05:08:18;-3.10;99.90
22212;DHT22;11275;52.488;13.462;2022-12-18T05:10:44;-3.10;99.90
22212;DHT22;11275;52.488;13.462;2022-12-18T05:13:10;-3.00;99.90
22212;DHT22;11275;52.488;13.462;2022-12-18T05:15:36;-3.10;99.90
22212;DHT22;11275;52.488;13.462;2022-12-18T05:18:03;-3.10;99.90
22212;DHT22;11275;52.488;13.462;2022-12-18T05:20:29;-3.00;99.90
22212;DHT22;11275;52.488;13.462;2022-12-18T05:22:55;-3.10;99.90
22212;DHT22;11275;52.488;13.462;2022-12-18T05:25:22;-3.10;99.90
22212;DHT22;11275;52.488;13.462;2022-12-18T05:27:48;-3.00;99.90
22212;DHT22;11275;52.488;13.462;2022-12-18T05:30:14;-3.10;99.90
22212;DHT22;11275;52.488;13.462;2022-12-18T05:32:40;-3.10;99.90
22212;DHT22;11275;52.488;13.462;2022-12-18T05:35:08;-3.00;99.90
22212;DHT22;11275;52.488;13.462;2022-12-18T05:37:34;-3.00;99.90
22212;DHT22;11275;52.488;13.462;2022-12-18T05:40:01;-3.00;99.90
22212;DHT22;11275;52.488;13.462;2022-12-18T05:42:27;-3.00;99.90
22212;DHT22;11275;52.488;13.462;2022-12-18T05:44:52;-3.10;99.90
22212;DHT22;11275;52.488;13.462;2022-12-18T05:47:19;-3.10;99.90
22212;DHT22;11275;52.488;13.462;2022-12-18T05:49:44;-3.00;99.90
22212;DHT22;11275;52.488;13.462;2022-12-18T05:52:10;-3.10;99.90
22212;DHT22;11275;52.488;13.462;2022-12-18T05:54:36;-3.00;99.90
22212;DHT22;11275;52.488;13.462;2022-12-18T05:57:02;-3.00;99.90
22212;DHT22;11275;52.488;13.462;2022-12-18T05:59:27;-3.00;99.90
22212;DHT22;11275;52.488;13.462;2022-12-18T06:01:53;-3.10;99.90
22212;DHT22;11275;52.488;13.462;2022-12-18T06:04:18;-3.10;99.90
22212;DHT22;11275;52.488;13.462;2022-12-18T06:06:44;-3.00;99.90
22212;DHT22;11275;52.488;13.462;2022-12-18T06:09:10;-3.00;99.90
22212;DHT22;11275;52.488;13.462;2022-12-18T06:11:36;-3.00;99.90
22212;DHT22;11275;52.488;13.462;2022-12-18T06:14:04;-3.00;99.90
22212;DHT22;11275;52.488;13.462;2022-12-18T06:16:30;-2.90;99.90
22212;DHT22;11275;52.488;13.462;2022-12-18T06:19:00;-2.90;99.90
22212;DHT22;11275;52.488;13.462;2022-12-18T06:21:27;-2.90;99.90
22212;DHT22;11275;52.488;13.462;2022-12-18T06:23:52;-2.90;99.90
22212;DHT22;11275;52.488;13.462;2022-12-18T06:26:18;-2.90;99.90
22212;DHT22;11275;52.488;13.462;2022-12-18T06:28:44;-2.90;99.90
22212;DHT22;11275;52.488;13.462;2022-12-18T06:31:10;-2.90;99.90
22212;DHT22;11275;52.488;13.462;2022-12-18T06:33:36;-2.90;99.90
22212;DHT22;11275;52.488;13.462;2022-12-18T06:36:08;-2.90;99.90
22212;DHT22;11275;52.488;13.462;2022-12-18T06:38:36;-2.90;99.90
22212;DHT22;11275;52.488;13.462;2022-12-18T06:41:07;-2.90;99.90
22212;DHT22;11275;52.488;13.462;2022-12-18T06:43:33;-2.90;99.90
22212;DHT22;11275;52.488;13.462;2022-12-18T06:46:03;-3.00;99.90
22212;DHT22;11275;52.488;13.462;2022-12-18T06:48:29;-3.00;99.90
22212;DHT22;11275;52.488;13.462;2022-12-18T06:50:55;-2.80;99.90
22212;DHT22;11275;52.488;13.462;2022-12-18T06:53:21;-2.90;99.90
22212;DHT22;11275;52.488;13.462;2022-12-18T06:55:46;-3.00;99.90
22212;DHT22;11275;52.488;13.462;2022-12-18T06:58:12;-3.00;99.90
22212;DHT22;11275;52.488;13.462;2022-12-18T07:00:38;-3.10;99.90
22212;DHT22;11275;52.488;13.462;2022-12-18T07:03:03;-3.10;99.90
22212;DHT22;11275;52.488;13.462;2022-12-18T07:05:29;-3.10;99.90
22212;DHT22;11275;52.488;13.462;2022-12-18T07:07:55;-3.10;99.90
22212;DHT22;11275;52.488;13.462;2022-12-18T07:10:20;-3.10;99.90
22212;DHT22;11275;52.488;13.462;2022-12-18T07:12:46;-3.10;99.90
22212;DHT22;11275;52.488;13.462;2022-12-18T07:15:12;-3.10;99.90
22212;DHT22;11275;52.488;13.462;2022-12-18T07:17:37;-3.10;99.90
22212;DHT22;11275;52.488;13.462;2022-12-18T07:20:03;-3.20;99.90
22212;DHT22;11275;52.488;13.462;2022-12-18T07:22:32;-3.10;99.90
22212;DHT22;11275;52.488;13.462;2022-12-18T07:24:58;-3.20;99.90
22212;DHT22;11275;52.488;13.462;2022-12-18T07:27:24;-3.20;99.90
22212;DHT22;11275;52.488;13.462;2022-12-18T07:29:49;-3.10;99.90
22212;DHT22;11275;52.488;13.462;2022-12-18T07:32:15;-3.10;99.90
22212;DHT22;11275;52.488;13.462;2022-12-18T07:34:41;-3.10;99.90
22212;DHT22;11275;52.488;13.462;2022-12-18T07:37:07;-3.10;99.90
22212;DHT22;11275;52.488;13.462;2022-12-18T07:39:32;-3.20;99.90
22212;DHT22;11275;52.488;13.462;2022-12-18T07:41:58;-3.20;99.90
22212;DHT22;11275;52.488;13.462;2022-12-18T07:44:42;-3.20;99.90
22212;DHT22;11275;52.488;13.462;2022-12-18T07:47:08;-3.10;99.90
22212;DHT22;11275;52.488;13.462;2022-12-18T07:49:37;-3.10;99.90
22212;DHT22;11275;52.488;13.462;2022-12-18T07:52:03;-3.10;99.90
22212;DHT22;11275;52.488;13.462;2022-12-18T07:54:28;-3.10;99.90
22212;DHT22;11275;52.488;13.462;2022-12-18T07:56:54;-3.00;99.90
22212;DHT22;11275;52.488;13.462;2022-12-18T07:59:20;-2.90;99.90
22212;DHT22;11275;52.488;13.462;2022-12-18T08:01:46;-3.10;99.90
22212;DHT22;11275;52.488;13.462;2022-12-18T08:04:11;-3.50;99.90
22212;DHT22;11275;52.488;13.462;2022-12-18T08:06:37;-3.50;99.90
22212;DHT22;11275;52.488;13.462;2022-12-18T08:09:02;-3.40;99.90
22212;DHT22;11275;52.488;13.462;2022-12-18T08:11:28;-3.30;99.90
22212;DHT22;11275;52.488;13.462;2022-12-18T08:13:54;-3.20;99.90
22212;DHT22;11275;52.488;13.462;2022-12-18T08:16:21;-3.30;99.90
22212;DHT22;11275;52.488;13.462;2022-12-18T08:18:47;-3.50;99.90
22212;DHT22;11275;52.488;13.462;2022-12-18T08:23:41;-3.70;99.90
22212;DHT22;11275;52.488;13.462;2022-12-18T08:26:07;-3.80;99.90
22212;DHT22;11275;52.488;13.462;2022-12-18T08:28:33;-3.70;99.90
22212;DHT22;11275;52.488;13.462;2022-12-18T08:30:59;-3.60;99.90
22212;DHT22;11275;52.488;13.462;2022-12-18T08:33:25;-3.60;99.90
22212;DHT22;11275;52.488;13.462;2022-12-18T08:35:51;-3.50;99.90
22212;DHT22;11275;52.488;13.462;2022-12-18T08:38:17;-3.50;99.90
22212;DHT22;11275;52.488;13.462;2022-12-18T08:40:43;-3.70;99.90
22212;DHT22;11275;52.488;13.462;2022-12-18T08:43:12;-3.80;99.90
22212;DHT22;11275;52.488;13.462;2022-12-18T08:45:56;-3.80;99.90
22212;DHT22;11275;52.488;13.462;2022-12-18T08:48:22;-3.60;99.90
22212;DHT22;11275;52.488;13.462;2022-12-18T08:50:55;-3.50;99.90
22212;DHT22;11275;52.488;13.462;2022-12-18T08:53:21;-3.30;99.90
22212;DHT22;11275;52.488;13.462;2022-12-18T08:55:46;-3.30;99.90
22212;DHT22;11275;52.488;13.462;2022-12-18T08:58:12;-3.20;99.90
22212;DHT22;11275;52.488;13.462;2022-12-18T09:00:38;-2.80;99.90
22212;DHT22;11275;52.488;13.462;2022-12-18T09:03:03;-2.80;99.90
22212;DHT22;11275;52.488;13.462;2022-12-18T09:05:30;-2.80;99.90
22212;DHT22;11275;52.488;13.462;2022-12-18T09:07:55;-2.80;99.90
22212;DHT22;11275;52.488;13.462;2022-12-18T09:10:21;-2.70;99.90
22212;DHT22;11275;52.488;13.462;2022-12-18T09:12:50;-2.70;99.90
22212;DHT22;11275;52.488;13.462;2022-12-18T09:15:18;-2.70;99.90
22212;DHT22;11275;52.488;13.462;2022-12-18T09:17:44;-2.70;99.90
22212;DHT22;11275;52.488;13.462;2022-12-18T09:20:10;-2.50;99.90
22212;DHT22;11275;52.488;13.462;2022-12-18T09:22:35;-2.50;99.90
22212;DHT22;11275;52.488;13.462;2022-12-18T09:25:01;-2.50;99.90
22212;DHT22;11275;52.488;13.462;2022-12-18T09:27:27;-2.50;99.90
22212;DHT22;11275;52.488;13.462;2022-12-18T09:29:52;-2.50;99.90
22212;DHT22;11275;52.488;13.462;2022-12-18T09:32:18;-2.40;99.90
22212;DHT22;11275;52.488;13.462;2022-12-18T09:34:43;-2.30;99.90
22212;DHT22;11275;52.488;13.462;2022-12-18T09:37:09;-2.30;99.90
22212;DHT22;11275;52.488;13.462;2022-12-18T09:39:35;-2.30;99.90
22212;DHT22;11275;52.488;13.462;2022-12-18T09:42:00;-2.20;99.90
22212;DHT22;11275;52.488;13.462;2022-12-18T09:44:40;-2.10;99.90
22212;DHT22;11275;52.488;13.462;2022-12-18T09:49:36;-2.10;99.90
22212;DHT22;11275;52.488;13.462;2022-12-18T09:54:41;-2.10;99.90
22212;DHT22;11275;52.488;13.462;2022-12-18T09:57:14;-2.00;99.90
22212;DHT22;11275;52.488;13.462;2022-12-18T09:59:42;-2.00;99.90
22212;DHT22;11275;52.488;13.462;2022-12-18T10:02:18;-2.10;99.90
22212;DHT22;11275;52.488;13.462;2022-12-18T10:07:47;-2.00;99.90
22212;DHT22;11275;52.488;13.462;2022-12-18T10:10:36;-1.90;99.90
22212;DHT22;11275;52.488;13.462;2022-12-18T10:21:13;-1.70;99.90
22212;DHT22;11275;52.488;13.462;2022-12-18T10:23:50;-1.80;99.90
22212;DHT22;11275;52.488;13.462;2022-12-18T10:26:22;-1.80;99.90
22212;DHT22;11275;52.488;13.462;2022-12-18T10:28:48;-1.80;99.90
22212;DHT22;11275;52.488;13.462;2022-12-18T10:31:19;-1.70;99.90
22212;DHT22;11275;52.488;13.462;2022-12-18T10:33:45;-1.70;99.90
22212;DHT22;11275;52.488;13.462;2022-12-18T10:36:12;-1.70;99.90
22212;DHT22;11275;52.488;13.462;2022-12-18T10:38:37;-1.60;99.90
22212;DHT22;11275;52.488;13.462;2022-12-18T10:41:05;-1.60;99.90
22212;DHT22;11275;52.488;13.462;2022-12-18T10:43:34;-1.60;99.90
22212;DHT22;11275;52.488;13.462;2022-12-18T10:48:55;-1.40;99.90
22212;DHT22;11275;52.488;13.462;2022-12-18T10:53:59;-1.70;99.90
22212;DHT22;11275;52.488;13.462;2022-12-18T10:56:27;-1.80;99.90
22212;DHT22;11275;52.488;13.462;2022-12-18T10:59:05;-1.70;99.90
22212;DHT22;11275;52.488;13.462;2022-12-18T11:04:33;-1.70;99.90
22212;DHT22;11275;52.488;13.462;2022-12-18T11:07:08;-1.60;99.90
22212;DHT22;11275;52.488;13.462;2022-12-18T11:09:38;-1.50;99.90
22212;DHT22;11275;52.488;13.462;2022-12-18T11:12:28;-1.50;99.90
22212;DHT22;11275;52.488;13.462;2022-12-18T11:14:55;-1.60;99.90
22212;DHT22;11275;52.488;13.462;2022-12-18T11:17:30;-1.50;99.90
22212;DHT22;11275;52.488;13.462;2022-12-18T11:19:58;-1.40;99.90
22212;DHT22;11275;52.488;13.462;2022-12-18T11:22:29;-1.30;99.90
22212;DHT22;11275;52.488;13.462;2022-12-18T11:24:59;-1.30;99.90
22212;DHT22;11275;52.488;13.462;2022-12-18T11:27:27;-1.30;99.90
22212;DHT22;11275;52.488;13.462;2022-12-18T11:30:20;-1.20;99.90
22212;DHT22;11275;52.488;13.462;2022-12-18T11:33:00;-1.30;99.90
22212;DHT22;11275;52.488;13.462;2022-12-18T11:35:42;-1.40;99.90
22212;DHT22;11275;52.488;13.462;2022-12-18T11:38:31;-1.50;99.90
22212;DHT22;11275;52.488;13.462;2022-12-18T11:43:33;-1.40;99.90
22212;DHT22;11275;52.488;13.462;2022-12-18T11:46:32;-1.30;99.90
22212;DHT22;11275;52.488;13.462;2022-12-18T11:48:58;-1.30;99.90
22212;DHT22;11275;52.488;13.462;2022-12-18T11:51:36;-1.40;99.90
22212;DHT22;11275;52.488;13.462;2022-12-18T11:54:13;-1.30;99.90
22212;DHT22;11275;52.488;13.462;2022-12-18T12:00:07;-1.20;99.90
22212;DHT22;11275;52.488;13.462;2022-12-18T12:05:31;-1.30;99.90
22212;DHT22;11275;52.488;13.462;2022-12-18T12:08:15;-1.40;99.90
22212;DHT22;11275;52.488;13.462;2022-12-18T12:10:54;-1.40;99.90
22212;DHT22;11275;52.488;13.462;2022-12-18T12:13:48;-1.40;99.90
22212;DHT22;11275;52.488;13.462;2022-12-18T12:16:31;-1.30;99.90
22212;DHT22;11275;52.488;13.462;2022-12-18T12:19:29;-1.30;99.90
22212;DHT22;11275;52.488;13.462;2022-12-18T12:28:01;-1.30;99.90
22212;DHT22;11275;52.488;13.462;2022-12-18T12:36:25;-1.20;99.90
22212;DHT22;11275;52.488;13.462;2022-12-18T12:38:55;-1.20;99.90
22212;DHT22;11275;52.488;13.462;2022-12-18T12:41:25;-1.20;99.90
22212;DHT22;11275;52.488;13.462;2022-12-18T12:44:48;-1.20;99.90
22212;DHT22;11275;52.488;13.462;2022-12-18T12:47:38;-1.30;99.90
22212;DHT22;11275;52.488;13.462;2022-12-18T12:50:06;-1.20;99.90
22212;DHT22;11275;52.488;13.462;2022-12-18T12:52:46;-1.20;99.90
22212;DHT22;11275;52.488;13.462;2022-12-18T12:55:22;-1.20;99.90
22212;DHT22;11275;52.488;13.462;2022-12-18T13:00:20;-1.20;99.90
22212;DHT22;11275;52.488;13.462;2022-12-18T13:03:12;-1.10;99.90
22212;DHT22;11275;52.488;13.462;2022-12-18T13:05:44;-1.20;99.90
22212;DHT22;11275;52.488;13.462;2022-12-18T13:08:29;-1.20;99.90
22212;DHT22;11275;52.488;13.462;2022-12-18T13:10:59;-1.20;99.90
22212;DHT22;11275;52.488;13.462;2022-12-18T13:13:54;-1.20;99.90
22212;DHT22;11275;52.488;13.462;2022-12-18T13:16:23;-1.00;99.90
22212;DHT22;11275;52.488;13.462;2022-12-18T13:18:56;-1.10;99.90
22212;DHT22;11275;52.488;13.462;2022-12-18T13:21:32;-1.20;99.90
22212;DHT22;11275;52.488;13.462;2022-12-18T13:24:21;-1.40;99.90
22212;DHT22;11275;52.488;13.462;2022-12-18T13:26:48;-1.20;99.90
22212;DHT22;11275;52.488;13.462;2022-12-18T13:29:40;-1.20;99.90
22212;DHT22;11275;52.488;13.462;2022-12-18T13:32:19;-1.00;99.90
22212;DHT22;11275;52.488;13.462;2022-12-18T13:34:46;-1.00;99.90
22212;DHT22;11275;52.488;13.462;2022-12-18T13:37:42;-1.10;99.90
22212;DHT22;11275;52.488;13.462;2022-12-18T13:45:58;-1.50;99.90
22212;DHT22;11275;52.488;13.462;2022-12-18T13:48:26;-1.50;99.90
22212;DHT22;11275;52.488;13.462;2022-12-18T13:51:00;-1.50;99.90
22212;DHT22;11275;52.488;13.462;2022-12-18T13:53:30;-1.50;99.90
22212;DHT22;11275;52.488;13.462;2022-12-18T13:55:57;-1.40;99.90
22212;DHT22;11275;52.488;13.462;2022-12-18T13:58:23;-1.30;99.90
22212;DHT22;11275;52.488;13.462;2022-12-18T14:00:49;-1.40;99.90
22212;DHT22;11275;52.488;13.462;2022-12-18T14:03:18;-1.40;99.90
22212;DHT22;11275;52.488;13.462;2022-12-18T14:05:44;-1.40;99.90
22212;DHT22;11275;52.488;13.462;2022-12-18T14:08:14;-1.40;99.90
22212;DHT22;11275;52.488;13.462;2022-12-18T14:10:45;-1.30;99.90
22212;DHT22;11275;52.488;13.462;2022-12-18T14:13:58;-1.30;99.90
22212;DHT22;11275;52.488;13.462;2022-12-18T14:16:06;-1.20;99.90
22212;DHT22;11275;52.488;13.462;2022-12-18T14:18:50;-1.10;99.90
22212;DHT22;11275;52.488;13.462;2022-12-18T14:21:28;-1.20;99.90
22212;DHT22;11275;52.488;13.462;2022-12-18T14:24:20;-1.20;99.90
22212;DHT22;11275;52.488;13.462;2022-12-18T14:26:47;-1.20;99.90
22212;DHT22;11275;52.488;13.462;2022-12-18T14:29:42;-1.20;99.90
22212;DHT22;11275;52.488;13.462;2022-12-18T14:32:16;-1.40;99.90
22212;DHT22;11275;52.488;13.462;2022-12-18T14:34:44;-1.30;99.90
22212;DHT22;11275;52.488;13.462;2022-12-18T14:37:11;-1.30;99.90
22212;DHT22;11275;52.488;13.462;2022-12-18T14:39:38;-1.30;99.90
22212;DHT22;11275;52.488;13.462;2022-12-18T14:42:03;-1.70;99.90
22212;DHT22;11275;52.488;13.462;2022-12-18T14:44:29;-2.00;99.90
22212;DHT22;11275;52.488;13.462;2022-12-18T14:46:58;-2.20;99.90
22212;DHT22;11275;52.488;13.462;2022-12-18T14:49:27;-2.30;99.90
22212;DHT22;11275;52.488;13.462;2022-12-18T14:52:39;-2.30;99.90
22212;DHT22;11275;52.488;13.462;2022-12-18T14:54:40;-2.40;99.90
22212;DHT22;11275;52.488;13.462;2022-12-18T14:57:25;-2.50;99.90
22212;DHT22;11275;52.488;13.462;2022-12-18T15:00:07;-2.40;99.90
22212;DHT22;11275;52.488;13.462;2022-12-18T15:02:35;-2.20;99.90
22212;DHT22;11275;52.488;13.462;2022-12-18T15:05:16;-2.10;99.90
22212;DHT22;11275;52.488;13.462;2022-12-18T15:07:47;-2.20;99.90
22212;DHT22;11275;52.488;13.462;2022-12-18T15:20:31;-1.60;99.90
22212;DHT22;11275;52.488;13.462;2022-12-18T15:22:58;-1.60;99.90
22212;DHT22;11275;52.488;13.462;2022-12-18T15:25:33;-1.50;99.90
22212;DHT22;11275;52.488;13.462;2022-12-18T15:27:59;-1.50;99.90
22212;DHT22;11275;52.488;13.462;2022-12-18T15:30:25;-1.50;99.90
22212;DHT22;11275;52.488;13.462;2022-12-18T15:32:52;-1.50;99.90
22212;DHT22;11275;52.488;13.462;2022-12-18T15:35:22;-1.50;99.90
22212;DHT22;11275;52.488;13.462;2022-12-18T15:37:49;-1.40;99.90
22212;DHT22;11275;52.488;13.462;2022-12-18T15:40:20;-1.40;99.90
22212;DHT22;11275;52.488;13.462;2022-12-18T15:42:47;-1.40;99.90
22212;DHT22;11275;52.488;13.462;2022-12-18T15:45:36;-1.40;99.90
22212;DHT22;11275;52.488;13.462;2022-12-18T15:48:04;-1.60;99.90
22212;DHT22;11275;52.488;13.462;2022-12-18T15:50:30;-1.40;99.90
22212;DHT22;11275;52.488;13.462;2022-12-18T15:52:58;-1.20;99.90
22212;DHT22;11275;52.488;13.462;2022-12-18T15:55:24;-1.50;99.90
22212;DHT22;11275;52.488;13.462;2022-12-18T15:58:09;-1.60;99.90
22212;DHT22;11275;52.488;13.462;2022-12-18T16:00:38;-2.00;99.90
22212;DHT22;11275;52.488;13.462;2022-12-18T16:03:04;-2.30;99.90
22212;DHT22;11275;52.488;13.462;2022-12-18T16:05:30;-2.30;99.90
22212;DHT22;11275;52.488;13.462;2022-12-18T16:07:56;-2.30;99.90
22212;DHT22;11275;52.488;13.462;2022-12-18T16:10:23;-2.50;99.90
22212;DHT22;11275;52.488;13.462;2022-12-18T16:12:49;-2.40;99.90
22212;DHT22;11275;52.488;13.462;2022-12-18T16:15:15;-2.40;99.90
22212;DHT22;11275;52.488;13.462;2022-12-18T16:17:44;-2.50;99.90
22212;DHT22;11275;52.488;13.462;2022-12-18T16:20:15;-2.50;99.90
22212;DHT22;11275;52.488;13.462;2022-12-18T16:22:42;-2.50;99.90
22212;DHT22;11275;52.488;13.462;2022-12-18T16:25:22;-2.60;99.90
22212;DHT22;11275;52.488;13.462;2022-12-18T16:27:48;-2.40;99.90
22212;DHT22;11275;52.488;13.462;2022-12-18T16:30:16;-2.20;99.90
22212;DHT22;11275;52.488;13.462;2022-12-18T16:32:42;-2.20;99.90
22212;DHT22;11275;52.488;13.462;2022-12-18T16:35:12;-2.00;99.90
22212;DHT22;11275;52.488;13.462;2022-12-18T16:37:39;-1.80;99.90
22212;DHT22;11275;52.488;13.462;2022-12-18T16:40:10;-1.90;99.90
22212;DHT22;11275;52.488;13.462;2022-12-18T16:42:37;-1.80;99.90
22212;DHT22;11275;52.488;13.462;2022-12-18T16:45:04;-1.70;99.90
22212;DHT22;11275;52.488;13.462;2022-12-18T16:47:30;-1.90;99.90
22212;DHT22;11275;52.488;13.462;2022-12-18T16:49:55;-1.80;99.90
22212;DHT22;11275;52.488;13.462;2022-12-18T16:52:21;-2.00;99.90
22212;DHT22;11275;52.488;13.462;2022-12-18T16:54:47;-1.90;99.90
22212;DHT22;11275;52.488;13.462;2022-12-18T16:57:14;-2.00;99.90